createdAt,value
2023-03-12T00:00:41.697Z,2.40
2023-03-12T00:02:10.212Z,2.90
2023-03-12T00:03:14.554Z,3.30
2023-03-12T00:04:18.196Z,2.80
2023-03-12T00:05:22.595Z,2.20
2023-03-12T00:06:26.252Z,3.70
2023-03-12T00:07:29.933Z,2.60
2023-03-12T00:08:33.870Z,2.30
2023-03-12T00:09:39.233Z,3.90
2023-03-12T00:10:42.856Z,2.40
2023-03-12T00:11:46.550Z,2.60
2023-03-12T00:12:50.222Z,2.30
2023-03-12T00:13:55.955Z,2.30
2023-03-12T00:15:00.659Z,2.20
2023-03-12T00:16:12.866Z,2.70
2023-03-12T00:17:16.661Z,2.90
2023-03-12T00:18:20.304Z,2.30
2023-03-12T00:19:24.080Z,2.60
2023-03-12T00:20:27.776Z,3.90
2023-03-12T00:21:31.566Z,2.40
2023-03-12T00:22:35.601Z,2.90
2023-03-12T00:23:39.242Z,3.10
2023-03-12T00:24:42.876Z,2.50
2023-03-12T00:25:47.027Z,2.60
2023-03-12T00:26:50.736Z,2.20
2023-03-12T00:27:54.464Z,3.70
2023-03-12T00:28:58.084Z,2.80
2023-03-12T00:30:03.044Z,2.00
2023-03-12T00:31:21.608Z,2.10
2023-03-12T00:32:25.312Z,1.80
2023-03-12T00:33:29.401Z,2.30
2023-03-12T00:34:33.379Z,2.60
2023-03-12T00:35:40.056Z,2.30
2023-03-12T00:36:43.804Z,3.20
2023-03-12T00:37:47.386Z,2.10
2023-03-12T00:38:52.340Z,2.10
2023-03-12T00:40:59.741Z,1.80
2023-03-12T00:42:03.652Z,3.70
2023-03-12T00:43:08.769Z,2.00
2023-03-12T00:44:12.508Z,2.00
2023-03-12T00:45:16.311Z,2.80
2023-03-12T00:46:20.674Z,3.00
2023-03-12T00:47:24.525Z,2.00
2023-03-12T00:48:28.338Z,1.90
2023-03-12T00:49:32.306Z,2.50
2023-03-12T00:50:35.980Z,2.00
2023-03-12T00:51:41.410Z,3.70
2023-03-12T00:52:45.112Z,2.10
2023-03-12T00:53:50.923Z,2.10
2023-03-12T00:54:58.142Z,2.70
2023-03-12T00:56:02.237Z,2.00
2023-03-12T00:57:06.548Z,2.10
2023-03-12T00:58:11.213Z,1.80
2023-03-12T00:59:16.161Z,1.80
2023-03-12T01:00:20.603Z,2.00
2023-03-12T01:01:24.452Z,1.70
2023-03-12T01:02:28.212Z,2.20
2023-03-12T01:03:33.360Z,2.30
2023-03-12T01:04:37.073Z,1.90
2023-03-12T01:05:40.825Z,2.10
2023-03-12T01:06:44.800Z,2.20
2023-03-12T01:07:48.503Z,2.00
2023-03-12T01:08:52.379Z,2.10
2023-03-12T01:09:56.048Z,2.20
2023-03-12T01:11:00.255Z,2.40
2023-03-12T01:12:04.351Z,1.80
2023-03-12T01:13:08.660Z,1.80
2023-03-12T01:14:12.358Z,3.70
2023-03-12T01:15:17.747Z,3.40
2023-03-12T01:16:22.562Z,2.00
2023-03-12T01:17:26.208Z,2.30
2023-03-12T01:18:30.535Z,2.40
2023-03-12T01:19:34.226Z,2.20
2023-03-12T01:20:37.959Z,2.30
2023-03-12T01:21:41.584Z,2.10
2023-03-12T01:22:45.500Z,2.10
2023-03-12T01:23:51.386Z,2.80
2023-03-12T01:24:55.156Z,2.10
2023-03-12T01:25:59.458Z,3.00
2023-03-12T01:27:03.130Z,2.30
2023-03-12T01:28:06.870Z,2.40
2023-03-12T01:29:10.507Z,2.00
2023-03-12T01:30:14.386Z,1.80
2023-03-12T01:31:19.591Z,3.10
2023-03-12T01:32:23.840Z,2.40
2023-03-12T01:33:27.652Z,1.80
2023-03-12T01:34:34.650Z,3.10
2023-03-12T01:35:40.078Z,2.20
2023-03-12T01:36:45.119Z,2.30
2023-03-12T01:37:48.780Z,1.80
2023-03-12T01:38:55.139Z,2.00
2023-03-12T01:39:59.293Z,1.70
2023-03-12T01:41:02.909Z,2.40
2023-03-12T01:42:07.352Z,2.00
2023-03-12T01:43:29.810Z,2.10
2023-03-12T01:44:53.420Z,2.10
2023-03-12T01:46:16.810Z,2.10
2023-03-12T01:47:21.688Z,2.10
2023-03-12T01:48:28.288Z,1.80
2023-03-12T01:49:35.256Z,1.80
2023-03-12T01:50:39.461Z,1.90
2023-03-12T01:52:01.356Z,1.80
2023-03-12T01:53:10.403Z,2.00
2023-03-12T01:54:31.091Z,2.10
2023-03-12T01:55:35.485Z,1.70
2023-03-12T01:56:40.049Z,1.80
2023-03-12T01:58:54.170Z,1.70
2023-03-12T02:00:01.375Z,2.30
2023-03-12T02:01:06.399Z,1.70
2023-03-12T02:02:10.140Z,3.00
2023-03-12T02:03:15.660Z,4.00
2023-03-12T02:04:24.007Z,2.00
2023-03-12T02:05:43.628Z,1.70
2023-03-12T02:06:57.865Z,2.10
2023-03-12T02:08:01.534Z,4.40
2023-03-12T02:09:07.783Z,3.00
2023-03-12T02:10:12.613Z,1.80
2023-03-12T02:11:16.473Z,2.10
2023-03-12T02:12:20.287Z,2.50
2023-03-12T02:13:24.586Z,1.90
2023-03-12T02:14:29.038Z,2.00
2023-03-12T02:15:35.516Z,2.00
2023-03-12T02:16:40.213Z,1.50
2023-03-12T02:17:44.033Z,2.40
2023-03-12T02:18:50.370Z,1.80
2023-03-12T02:20:16.212Z,2.10
2023-03-12T02:21:24.680Z,2.10
2023-03-12T02:22:30.473Z,2.00
2023-03-12T02:23:41.953Z,2.90
2023-03-12T02:24:56.183Z,2.10
2023-03-12T02:26:01.333Z,1.60
2023-03-12T02:27:06.601Z,1.70
2023-03-12T02:28:14.718Z,2.00
2023-03-12T02:29:19.048Z,1.70
2023-03-12T02:30:22.896Z,1.70
2023-03-12T02:31:35.078Z,1.90
2023-03-12T02:32:39.579Z,2.10
2023-03-12T02:34:48.038Z,1.70
2023-03-12T02:35:53.025Z,1.80
2023-03-12T02:38:00.705Z,2.00
2023-03-12T02:39:05.848Z,1.80
2023-03-12T02:40:39.361Z,2.50
2023-03-12T02:41:53.810Z,1.80
2023-03-12T02:42:57.829Z,1.50
2023-03-12T02:44:02.083Z,2.20
2023-03-12T02:45:06.605Z,1.70
2023-03-12T02:46:10.941Z,1.80
2023-03-12T02:47:14.593Z,2.10
2023-03-12T02:48:18.277Z,1.70
2023-03-12T02:49:25.736Z,1.50
2023-03-12T02:50:29.824Z,2.50
2023-03-12T02:51:33.501Z,1.60
2023-03-12T02:52:38.177Z,1.70
2023-03-12T02:53:41.811Z,1.80
2023-03-12T02:54:45.593Z,1.80
2023-03-12T02:55:49.296Z,1.80
2023-03-12T02:56:53.700Z,2.00
2023-03-12T02:57:57.346Z,2.90
2023-03-12T02:59:04.403Z,1.40
2023-03-12T03:00:28.156Z,1.50
2023-03-12T03:01:33.838Z,1.00
2023-03-12T03:02:37.833Z,1.90
2023-03-12T03:03:41.577Z,2.20
2023-03-12T03:04:45.182Z,3.10
2023-03-12T03:05:49.064Z,1.80
2023-03-12T03:06:52.807Z,2.10
2023-03-12T03:07:56.452Z,1.90
2023-03-12T03:09:00.053Z,2.40
2023-03-12T03:10:05.226Z,1.90
2023-03-12T03:11:17.447Z,2.10
2023-03-12T03:12:22.730Z,2.80
2023-03-12T03:13:26.354Z,2.00
2023-03-12T03:14:30.098Z,1.90
2023-03-12T03:15:33.783Z,1.70
2023-03-12T03:16:37.756Z,1.60
2023-03-12T03:17:41.481Z,2.00
2023-03-12T03:18:45.748Z,2.00
2023-03-12T03:19:49.305Z,1.90
2023-03-12T03:21:02.240Z,3.00
2023-03-12T03:22:06.433Z,2.30
2023-03-12T03:23:11.481Z,1.70
2023-03-12T03:24:15.192Z,2.40
2023-03-12T03:25:22.266Z,2.50
2023-03-12T03:26:27.052Z,2.20
2023-03-12T03:27:30.692Z,1.90
2023-03-12T03:28:34.359Z,1.90
2023-03-12T03:29:38.542Z,2.00
2023-03-12T03:30:42.293Z,2.10
2023-03-12T03:31:46.004Z,1.70
2023-03-12T03:32:50.079Z,2.00
2023-03-12T03:34:57.793Z,1.60
2023-03-12T03:36:02.314Z,2.40
2023-03-12T03:37:06.845Z,2.10
2023-03-12T03:38:10.671Z,2.90
2023-03-12T03:39:15.707Z,1.90
2023-03-12T03:40:19.477Z,1.90
2023-03-12T03:41:23.283Z,3.00
2023-03-12T03:42:27.321Z,1.60
2023-03-12T03:43:31.086Z,2.40
2023-03-12T03:44:34.886Z,2.20
2023-03-12T03:45:38.552Z,3.80
2023-03-12T03:46:42.842Z,2.30
2023-03-12T03:47:49.027Z,1.90
2023-03-12T03:48:52.951Z,2.00
2023-03-12T03:49:56.848Z,2.60
2023-03-12T03:51:06.112Z,2.40
2023-03-12T03:52:10.307Z,1.80
2023-03-12T03:53:13.989Z,2.10
2023-03-12T03:54:18.954Z,2.30
2023-03-12T03:55:22.859Z,3.60
2023-03-12T03:56:26.733Z,2.20
2023-03-12T03:57:31.596Z,2.20
2023-03-12T03:58:36.075Z,2.20
2023-03-12T03:59:40.406Z,2.50
2023-03-12T04:00:45.942Z,1.90
2023-03-12T04:01:49.799Z,2.20
2023-03-12T04:02:53.520Z,3.30
2023-03-12T04:03:57.979Z,2.60
2023-03-12T04:06:07.113Z,2.10
2023-03-12T04:07:11.089Z,2.30
2023-03-12T04:08:15.041Z,2.30
2023-03-12T04:09:18.781Z,1.70
2023-03-12T04:10:24.720Z,2.00
2023-03-12T04:11:28.394Z,1.90
2023-03-12T04:12:32.416Z,3.00
2023-03-12T04:13:37.076Z,1.80
2023-03-12T04:14:42.191Z,1.60
2023-03-12T04:15:51.857Z,2.20
2023-03-12T04:16:55.669Z,2.10
2023-03-12T04:17:59.392Z,2.60
2023-03-12T04:19:03.518Z,2.60
2023-03-12T04:20:09.391Z,1.90
2023-03-12T04:21:14.214Z,1.80
2023-03-12T04:22:18.016Z,2.50
2023-03-12T04:23:22.275Z,2.20
2023-03-12T04:24:26.205Z,2.00
2023-03-12T04:25:29.866Z,3.30
2023-03-12T04:26:33.655Z,2.00
2023-03-12T04:27:37.853Z,1.90
2023-03-12T04:28:41.637Z,2.00
2023-03-12T04:29:47.347Z,2.00
2023-03-12T04:31:00.276Z,2.60
2023-03-12T04:32:05.915Z,1.90
2023-03-12T04:33:10.113Z,2.20
2023-03-12T04:34:14.732Z,1.90
2023-03-12T04:35:18.718Z,2.00
2023-03-12T04:36:22.550Z,2.00
2023-03-12T04:38:31.112Z,1.60
2023-03-12T04:39:34.859Z,2.20
2023-03-12T04:40:38.970Z,2.00
2023-03-12T04:41:42.812Z,2.20
2023-03-12T04:42:49.598Z,2.80
2023-03-12T04:43:53.293Z,2.10
2023-03-12T04:44:57.627Z,3.00
2023-03-12T04:46:03.197Z,2.00
2023-03-12T04:47:07.063Z,2.00
2023-03-12T04:48:10.849Z,2.20
2023-03-12T04:49:14.764Z,2.50
2023-03-12T04:50:18.980Z,2.20
2023-03-12T04:51:24.900Z,3.00
2023-03-12T04:52:28.880Z,1.70
2023-03-12T04:53:33.258Z,2.10
2023-03-12T04:54:37.367Z,2.00
2023-03-12T04:55:42.197Z,1.90
2023-03-12T04:56:45.829Z,2.20
2023-03-12T04:57:49.540Z,3.50
2023-03-12T04:58:53.525Z,1.90
2023-03-12T04:59:57.291Z,1.90
2023-03-12T05:01:01.224Z,2.00
2023-03-12T05:02:05.542Z,2.00
2023-03-12T05:03:10.464Z,1.60
2023-03-12T05:04:14.449Z,2.10
2023-03-12T05:05:23.737Z,2.10
2023-03-12T05:06:27.543Z,2.10
2023-03-12T05:07:38.637Z,2.20
2023-03-12T05:08:42.383Z,2.30
2023-03-12T05:09:46.874Z,3.00
2023-03-12T05:10:53.044Z,1.90
2023-03-12T05:11:56.635Z,2.00
2023-03-12T05:13:00.532Z,2.30
2023-03-12T05:14:04.586Z,2.10
2023-03-12T05:15:08.623Z,2.10
2023-03-12T05:16:15.846Z,2.80
2023-03-12T05:17:19.625Z,2.00
2023-03-12T05:18:23.853Z,1.90
2023-03-12T05:19:27.753Z,2.10
2023-03-12T05:20:31.409Z,3.50
2023-03-12T05:21:35.341Z,2.00
2023-03-12T05:22:39.966Z,2.40
2023-03-12T05:23:44.887Z,1.70
2023-03-12T05:24:48.864Z,2.90
2023-03-12T05:25:54.326Z,2.10
2023-03-12T05:26:57.992Z,1.90
2023-03-12T05:28:02.065Z,2.00
2023-03-12T05:29:06.333Z,1.90
2023-03-12T05:30:11.132Z,2.10
2023-03-12T05:31:15.598Z,1.80
2023-03-12T05:33:24.410Z,2.00
2023-03-12T05:35:34.106Z,1.70
2023-03-12T05:36:38.416Z,2.60
2023-03-12T05:37:42.798Z,2.70
2023-03-12T05:38:47.114Z,1.70
2023-03-12T05:39:51.061Z,2.30
2023-03-12T05:40:57.194Z,1.90
2023-03-12T05:42:00.999Z,2.00
2023-03-12T05:43:04.816Z,1.80
2023-03-12T05:44:11.673Z,2.30
2023-03-12T05:45:16.082Z,2.00
2023-03-12T05:46:25.642Z,2.00
2023-03-12T05:47:29.379Z,2.90
2023-03-12T05:48:33.266Z,1.50
2023-03-12T05:49:38.081Z,2.40
2023-03-12T05:50:42.028Z,2.10
2023-03-12T05:51:50.445Z,2.20
2023-03-12T05:52:54.355Z,3.00
2023-03-12T05:53:59.358Z,3.00
2023-03-12T05:55:03.213Z,1.80
2023-03-12T05:56:09.282Z,2.40
2023-03-12T05:57:13.124Z,1.90
2023-03-12T05:58:19.126Z,1.80
2023-03-12T05:59:23.008Z,2.40
2023-03-12T06:00:27.159Z,2.40
2023-03-12T06:01:32.513Z,2.50
2023-03-12T06:02:40.461Z,2.20
2023-03-12T06:03:45.252Z,1.50
2023-03-12T06:04:48.976Z,1.90
2023-03-12T06:05:55.110Z,3.50
2023-03-12T06:06:59.418Z,3.50
2023-03-12T06:08:04.734Z,1.70
2023-03-12T06:09:08.375Z,2.60
2023-03-12T06:10:12.476Z,1.60
2023-03-12T06:11:16.142Z,2.00
2023-03-12T06:12:19.785Z,2.30
2023-03-12T06:13:23.950Z,2.20
2023-03-12T06:14:27.648Z,1.90
2023-03-12T06:15:33.954Z,2.00
2023-03-12T06:16:38.400Z,1.70
2023-03-12T06:17:42.908Z,2.30
2023-03-12T06:18:48.180Z,2.00
2023-03-12T06:19:53.456Z,1.90
2023-03-12T06:21:10.330Z,1.70
2023-03-12T06:22:13.919Z,2.10
2023-03-12T06:23:19.713Z,1.70
2023-03-12T06:24:24.956Z,1.90
2023-03-12T06:25:36.794Z,1.70
2023-03-12T06:26:41.570Z,1.60
2023-03-12T06:27:45.222Z,2.00
2023-03-12T06:28:50.200Z,1.60
2023-03-12T06:29:53.903Z,1.90
2023-03-12T06:30:57.700Z,2.60
2023-03-12T06:32:01.499Z,2.30
2023-03-12T06:33:08.880Z,1.50
2023-03-12T06:34:12.672Z,2.00
2023-03-12T06:35:16.256Z,1.70
2023-03-12T06:36:23.289Z,2.10
2023-03-12T06:37:30.321Z,1.70
2023-03-12T06:38:34.721Z,1.70
2023-03-12T06:39:39.058Z,1.90
2023-03-12T06:40:42.704Z,2.10
2023-03-12T06:41:46.391Z,2.70
2023-03-12T06:42:50.580Z,1.50
2023-03-12T06:43:54.208Z,2.00
2023-03-12T06:44:57.806Z,1.20
2023-03-12T06:46:02.919Z,2.10
2023-03-12T06:47:06.685Z,3.70
2023-03-12T06:48:10.352Z,2.20
2023-03-12T06:49:15.031Z,3.00
2023-03-12T06:50:18.818Z,1.60
2023-03-12T06:51:22.605Z,2.60
2023-03-12T06:52:26.958Z,1.70
2023-03-12T06:53:31.038Z,1.90
2023-03-12T06:54:34.804Z,1.90
2023-03-12T06:55:39.197Z,1.90
2023-03-12T06:56:42.819Z,1.80
2023-03-12T06:57:46.386Z,1.60
2023-03-12T06:58:52.276Z,2.00
2023-03-12T06:59:56.017Z,2.00
2023-03-12T07:00:59.746Z,1.40
2023-03-12T07:02:03.740Z,1.90
2023-03-12T07:03:07.580Z,1.80
2023-03-12T07:04:11.248Z,1.70
2023-03-12T07:05:15.034Z,1.80
2023-03-12T07:06:21.203Z,1.90
2023-03-12T07:07:25.518Z,1.80
2023-03-12T07:08:30.995Z,1.80
2023-03-12T07:09:34.757Z,2.30
2023-03-12T07:10:38.486Z,1.60
2023-03-12T07:11:42.160Z,1.50
2023-03-12T07:12:46.367Z,2.00
2023-03-12T07:13:50.169Z,1.80
2023-03-12T07:14:54.456Z,1.50
2023-03-12T07:15:58.240Z,1.60
2023-03-12T07:17:02.357Z,1.80
2023-03-12T07:18:11.547Z,2.20
2023-03-12T07:19:15.692Z,1.70
2023-03-12T07:20:19.503Z,1.60
2023-03-12T07:21:23.738Z,1.40
2023-03-12T07:22:27.630Z,2.10
2023-03-12T07:23:31.336Z,3.30
2023-03-12T07:24:35.062Z,2.20
2023-03-12T07:25:41.014Z,2.40
2023-03-12T07:26:46.126Z,2.10
2023-03-12T07:27:49.726Z,1.70
2023-03-12T07:28:53.332Z,1.50
2023-03-12T07:29:56.964Z,2.70
2023-03-12T07:31:03.226Z,1.60
2023-03-12T07:32:06.915Z,1.50
2023-03-12T07:33:12.742Z,2.00
2023-03-12T07:34:16.872Z,3.00
2023-03-12T07:35:20.660Z,1.70
2023-03-12T07:36:24.531Z,1.40
2023-03-12T07:37:28.393Z,2.50
2023-03-12T07:38:32.084Z,1.30
2023-03-12T07:39:35.705Z,1.40
2023-03-12T07:40:39.671Z,1.70
2023-03-12T07:41:43.344Z,1.50
2023-03-12T07:42:48.010Z,1.60
2023-03-12T07:43:52.829Z,1.70
2023-03-12T07:44:56.457Z,1.80
2023-03-12T07:46:00.158Z,2.00
2023-03-12T07:47:20.721Z,1.40
2023-03-12T07:48:26.886Z,1.60
2023-03-12T07:49:30.926Z,1.30
2023-03-12T07:50:36.111Z,1.40
2023-03-12T07:51:39.734Z,1.60
2023-03-12T07:52:44.467Z,1.40
2023-03-12T07:53:48.386Z,1.40
2023-03-12T07:54:52.861Z,1.60
2023-03-12T07:57:00.442Z,1.00
2023-03-12T07:58:04.550Z,4.10
2023-03-12T07:59:08.474Z,1.50
2023-03-12T08:00:12.964Z,1.50
2023-03-12T08:01:16.726Z,1.50
2023-03-12T08:02:21.394Z,2.00
2023-03-12T08:03:26.048Z,1.50
2023-03-12T08:04:30.027Z,2.40
2023-03-12T08:05:33.946Z,2.50
2023-03-12T08:06:38.719Z,1.70
2023-03-12T08:07:42.354Z,2.20
2023-03-12T08:08:46.724Z,2.10
2023-03-12T08:09:50.468Z,1.90
2023-03-12T08:10:54.578Z,1.90
2023-03-12T08:11:58.123Z,1.60
2023-03-12T08:13:01.756Z,2.20
2023-03-12T08:14:05.632Z,1.90
2023-03-12T08:15:12.588Z,1.40
2023-03-12T08:16:16.325Z,1.80
2023-03-12T08:17:20.521Z,1.20
2023-03-12T08:18:24.717Z,1.40
2023-03-12T08:19:28.697Z,1.20
2023-03-12T08:20:32.472Z,1.60
2023-03-12T08:21:36.216Z,2.10
2023-03-12T08:22:40.852Z,1.60
2023-03-12T08:24:48.161Z,1.30
2023-03-12T08:25:52.875Z,1.60
2023-03-12T08:26:56.866Z,1.00
2023-03-12T08:28:00.477Z,4.00
2023-03-12T08:29:05.146Z,1.20
2023-03-12T08:30:12.988Z,1.50
2023-03-12T08:31:16.947Z,2.30
2023-03-12T08:32:21.232Z,1.50
2023-03-12T08:33:25.010Z,1.70
2023-03-12T08:34:28.729Z,1.50
2023-03-12T08:35:32.608Z,1.60
2023-03-12T08:36:37.304Z,1.70
2023-03-12T08:37:41.553Z,3.50
2023-03-12T08:38:45.220Z,1.60
2023-03-12T08:39:48.948Z,1.40
2023-03-12T08:40:57.966Z,1.50
2023-03-12T08:42:01.741Z,1.80
2023-03-12T08:43:07.469Z,1.50
2023-03-12T08:44:11.109Z,1.50
2023-03-12T08:45:16.164Z,2.70
2023-03-12T08:46:19.810Z,1.70
2023-03-12T08:47:23.574Z,1.40
2023-03-12T08:48:29.100Z,2.10
2023-03-12T08:49:32.807Z,1.40
2023-03-12T08:50:36.457Z,1.90
2023-03-12T08:51:40.122Z,1.20
2023-03-12T08:52:44.277Z,1.40
2023-03-12T08:53:47.973Z,2.20
2023-03-12T08:54:51.592Z,1.70
2023-03-12T08:55:56.395Z,1.40
2023-03-12T08:57:00.110Z,1.80
2023-03-12T08:58:03.734Z,4.30
2023-03-12T08:59:08.610Z,1.70
2023-03-12T09:00:15.157Z,1.30
2023-03-12T09:01:18.833Z,1.50
2023-03-12T09:02:22.405Z,1.50
2023-03-12T09:03:27.060Z,1.90
2023-03-12T09:04:30.996Z,1.60
2023-03-12T09:05:35.069Z,1.70
2023-03-12T09:06:38.781Z,1.60
2023-03-12T09:07:42.496Z,1.70
2023-03-12T09:08:47.289Z,2.40
2023-03-12T09:09:50.969Z,1.70
2023-03-12T09:10:54.802Z,1.80
2023-03-12T09:11:58.466Z,2.30
2023-03-12T09:13:02.633Z,2.40
2023-03-12T09:15:01.128Z,1.50
2023-03-12T09:15:32.255Z,2.10
2023-03-12T09:16:36.095Z,1.80
2023-03-12T09:17:40.059Z,2.40
2023-03-12T09:18:43.617Z,2.50
2023-03-12T09:19:47.448Z,2.60
2023-03-12T09:20:51.010Z,1.80
2023-03-12T09:21:54.738Z,2.00
2023-03-12T09:22:58.331Z,3.30
2023-03-12T09:24:02.159Z,2.30
2023-03-12T09:25:08.550Z,2.00
2023-03-12T09:26:13.531Z,2.10
2023-03-12T09:27:17.160Z,2.10
2023-03-12T09:28:21.859Z,2.20
2023-03-12T09:29:25.547Z,2.60
2023-03-12T09:30:30.258Z,2.50
2023-03-12T09:31:36.284Z,2.40
2023-03-12T09:32:40.665Z,2.40
2023-03-12T09:33:44.400Z,2.50
2023-03-12T09:34:48.063Z,2.70
2023-03-12T09:35:59.360Z,3.40
2023-03-12T09:37:03.094Z,2.70
2023-03-12T09:38:11.901Z,3.10
2023-03-12T09:39:16.403Z,3.40
2023-03-12T09:40:23.878Z,2.50
2023-03-12T09:41:31.924Z,2.50
2023-03-12T09:42:46.206Z,2.80
2023-03-12T09:44:16.692Z,2.80
2023-03-12T09:45:24.711Z,2.50
2023-03-12T09:46:38.115Z,3.30
2023-03-12T09:47:53.969Z,2.50
2023-03-12T09:49:01.465Z,2.70
2023-03-12T09:50:28.375Z,2.60
2023-03-12T09:51:41.197Z,3.00
2023-03-12T09:53:03.077Z,2.40
2023-03-12T09:54:13.368Z,2.80
2023-03-12T09:55:20.206Z,3.20
2023-03-12T09:56:27.176Z,3.50
2023-03-12T09:57:32.593Z,3.70
2023-03-12T09:58:38.395Z,3.30
2023-03-12T09:59:42.048Z,3.90
2023-03-12T10:00:47.638Z,3.20
2023-03-12T10:02:02.094Z,3.30
2023-03-12T10:03:33.523Z,3.40
2023-03-12T10:05:00.332Z,2.70
2023-03-12T10:06:14.264Z,4.60
2023-03-12T10:07:35.022Z,4.40
2023-03-12T10:09:01.666Z,3.60
2023-03-12T10:10:30.655Z,3.10
2023-03-12T10:11:52.479Z,3.50
2023-03-12T10:13:21.808Z,3.30
2023-03-12T10:14:47.015Z,3.50
2023-03-12T10:16:08.988Z,3.90
2023-03-12T10:17:18.423Z,3.20
2023-03-12T10:18:41.362Z,3.80
2023-03-12T10:20:10.950Z,3.60
2023-03-12T10:21:39.228Z,4.00
2023-03-12T10:23:07.206Z,3.60
2023-03-12T10:24:25.231Z,4.00
2023-03-12T10:25:48.666Z,3.80
2023-03-12T10:26:58.589Z,4.00
2023-03-12T10:28:31.875Z,4.80
2023-03-12T10:29:44.063Z,4.20
2023-03-12T10:30:57.373Z,3.40
2023-03-12T10:32:06.827Z,4.60
2023-03-12T10:33:15.946Z,5.10
2023-03-12T10:34:32.199Z,4.30
2023-03-12T10:35:36.536Z,3.90
2023-03-12T10:36:41.499Z,3.40
2023-03-12T10:38:00.098Z,4.10
2023-03-12T10:39:04.790Z,4.50
2023-03-12T10:40:18.848Z,4.40
2023-03-12T10:41:25.980Z,3.80
2023-03-12T10:42:30.158Z,4.50
2023-03-12T10:43:35.876Z,4.00
2023-03-12T10:44:39.934Z,3.60
2023-03-12T10:46:05.898Z,5.00
2023-03-12T10:47:35.885Z,4.80
2023-03-12T10:48:39.537Z,3.40
2023-03-12T10:49:50.428Z,4.90
2023-03-12T10:51:11.569Z,4.70
2023-03-12T10:52:18.137Z,4.40
2023-03-12T10:53:29.656Z,4.80
2023-03-12T10:54:37.398Z,4.70
2023-03-12T10:55:41.770Z,5.20
2023-03-12T10:56:51.341Z,4.30
2023-03-12T10:57:56.287Z,4.40
2023-03-12T11:01:15.388Z,3.30
2023-03-12T11:02:28.144Z,4.10
2023-03-12T11:03:33.870Z,4.00
2023-03-12T11:04:37.722Z,4.50
2023-03-12T11:05:50.008Z,5.60
2023-03-12T11:07:08.004Z,4.50
2023-03-12T11:08:27.853Z,5.00
2023-03-12T11:09:31.595Z,4.00
2023-03-12T11:10:45.519Z,4.40
2023-03-12T11:11:50.417Z,4.80
2023-03-12T11:13:01.324Z,4.30
2023-03-12T11:14:19.051Z,4.40
2023-03-12T11:15:29.047Z,3.80
2023-03-12T11:16:32.911Z,4.30
2023-03-12T11:17:36.517Z,4.20
2023-03-12T11:18:40.563Z,5.10
2023-03-12T11:19:44.853Z,6.10
2023-03-12T11:20:52.488Z,5.60
2023-03-12T11:22:01.222Z,4.40
2023-03-12T11:23:17.780Z,4.10
2023-03-12T11:24:21.351Z,3.60
2023-03-12T11:25:28.958Z,4.20
2023-03-12T11:26:51.992Z,5.20
2023-03-12T11:27:59.920Z,4.50
2023-03-12T11:29:25.219Z,4.50
2023-03-12T11:30:38.448Z,4.10
2023-03-12T11:31:57.437Z,4.50
2023-03-12T11:33:02.166Z,3.60
2023-03-12T11:34:13.150Z,4.80
2023-03-12T11:36:58.196Z,4.30
2023-03-12T11:38:20.384Z,4.30
2023-03-12T11:39:35.367Z,4.70
2023-03-12T11:40:50.883Z,4.80
2023-03-12T11:42:00.448Z,4.30
2023-03-12T11:43:32.327Z,5.90
2023-03-12T11:45:16.246Z,3.70
2023-03-12T11:47:51.160Z,3.20
2023-03-12T11:49:03.820Z,4.00
2023-03-12T11:50:13.549Z,3.80
2023-03-12T11:51:32.055Z,4.30
2023-03-12T11:53:21.582Z,4.50
2023-03-12T11:54:40.284Z,3.90
2023-03-12T11:55:58.650Z,5.80
2023-03-12T11:57:07.668Z,3.70
2023-03-12T11:58:20.270Z,4.50
2023-03-12T11:59:38.739Z,4.20
2023-03-12T12:00:57.173Z,4.80
2023-03-12T12:02:55.097Z,4.40
2023-03-12T12:04:31.018Z,3.80
2023-03-12T12:06:02.240Z,4.00
2023-03-12T12:07:42.511Z,3.80
2023-03-12T12:08:58.477Z,3.80
2023-03-12T12:10:23.733Z,2.80
2023-03-12T12:11:54.580Z,4.30
2023-03-12T12:13:22.451Z,3.60
2023-03-12T12:14:28.859Z,3.80
2023-03-12T12:15:35.331Z,3.60
2023-03-12T12:17:04.338Z,4.80
2023-03-12T12:18:27.009Z,3.40
2023-03-12T12:19:39.782Z,4.00
2023-03-12T12:21:00.252Z,4.10
2023-03-12T12:22:24.581Z,3.90
2023-03-12T12:23:57.254Z,5.20
2023-03-12T12:25:42.836Z,4.20
2023-03-12T12:27:04.421Z,3.90
2023-03-12T12:28:29.776Z,4.50
2023-03-12T12:30:00.830Z,5.10
2023-03-12T12:31:24.485Z,5.00
2023-03-12T12:33:41.381Z,4.30
2023-03-12T12:35:22.511Z,5.50
2023-03-12T12:36:30.682Z,3.80
2023-03-12T12:37:47.134Z,6.10
2023-03-12T12:38:56.715Z,4.10
2023-03-12T12:40:22.536Z,5.10
2023-03-12T12:41:30.217Z,3.90
2023-03-12T12:42:39.974Z,4.30
2023-03-12T12:44:11.567Z,4.50
2023-03-12T12:45:15.663Z,4.20
2023-03-12T12:46:22.482Z,4.70
2023-03-12T12:47:36.614Z,4.30
2023-03-12T12:48:52.863Z,4.10
2023-03-12T12:49:58.268Z,3.90
2023-03-12T12:51:04.221Z,4.10
2023-03-12T12:52:11.541Z,4.50
2023-03-12T12:53:26.969Z,4.30
2023-03-12T12:54:58.016Z,4.20
2023-03-12T12:56:15.455Z,3.90
2023-03-12T12:57:37.879Z,3.40
2023-03-12T12:59:08.854Z,4.10
2023-03-12T13:00:31.234Z,4.00
2023-03-12T13:01:35.975Z,3.80
2023-03-12T13:02:44.090Z,3.50
2023-03-12T13:03:49.392Z,4.10
2023-03-12T13:04:58.206Z,4.60
2023-03-12T13:06:04.974Z,3.70
2023-03-12T13:07:11.770Z,4.20
2023-03-12T13:08:42.436Z,4.90
2023-03-12T13:09:53.247Z,5.30
2023-03-12T13:11:02.470Z,3.90
2023-03-12T13:12:41.748Z,4.00
2023-03-12T13:13:46.550Z,4.50
2023-03-12T13:14:51.934Z,4.60
2023-03-12T13:16:39.196Z,4.40
2023-03-12T13:17:51.525Z,4.60
2023-03-12T13:18:58.263Z,4.10
2023-03-12T13:20:05.682Z,4.30
2023-03-12T13:21:29.421Z,3.70
2023-03-12T13:22:42.109Z,4.30
2023-03-12T13:24:10.737Z,3.80
2023-03-12T13:25:41.933Z,3.70
2023-03-12T13:27:00.805Z,4.80
2023-03-12T13:28:26.487Z,3.70
2023-03-12T13:29:30.587Z,4.00
2023-03-12T13:30:34.212Z,5.00
2023-03-12T13:31:39.824Z,3.70
2023-03-12T13:32:49.540Z,5.00
2023-03-12T13:34:20.655Z,4.00
2023-03-12T13:35:24.241Z,3.70
2023-03-12T13:36:30.705Z,5.00
2023-03-12T13:37:47.186Z,4.60
2023-03-12T13:39:05.974Z,4.20
2023-03-12T13:40:31.381Z,4.20
2023-03-12T13:41:41.119Z,3.40
2023-03-12T13:42:44.914Z,3.60
2023-03-12T13:43:50.648Z,4.70
2023-03-12T13:44:56.428Z,4.30
2023-03-12T13:46:15.307Z,4.80
2023-03-12T13:47:23.192Z,3.40
2023-03-12T13:48:27.866Z,3.40
2023-03-12T13:49:40.923Z,3.50
2023-03-12T13:50:55.479Z,4.20
2023-03-12T13:52:20.797Z,4.00
2023-03-12T13:53:28.262Z,3.60
2023-03-12T13:54:34.782Z,3.30
2023-03-12T13:55:39.466Z,3.50
2023-03-12T13:56:54.169Z,4.20
2023-03-12T13:58:13.196Z,4.20
2023-03-12T13:59:18.065Z,3.80
2023-03-12T14:00:34.729Z,4.40
2023-03-12T14:01:46.910Z,5.30
2023-03-12T14:03:06.314Z,3.30
2023-03-12T14:04:25.828Z,3.80
2023-03-12T14:05:55.143Z,3.70
2023-03-12T14:07:19.944Z,4.60
2023-03-12T14:08:48.172Z,4.40
2023-03-12T14:10:19.355Z,4.30
2023-03-12T14:11:58.771Z,3.40
2023-03-12T14:13:27.333Z,4.70
2023-03-12T14:14:41.197Z,3.90
2023-03-12T14:15:59.084Z,4.20
2023-03-12T14:17:05.451Z,3.40
2023-03-12T14:18:18.984Z,4.00
2023-03-12T14:19:25.496Z,3.70
2023-03-12T14:20:29.916Z,3.80
2023-03-12T14:21:40.072Z,3.40
2023-03-12T14:22:48.924Z,4.70
2023-03-12T14:23:57.936Z,3.30
2023-03-12T14:25:31.494Z,3.80
2023-03-12T14:26:38.615Z,4.80
2023-03-12T14:27:47.438Z,3.50
2023-03-12T14:29:00.146Z,3.80
2023-03-12T14:30:12.080Z,3.30
2023-03-12T14:31:21.774Z,3.20
2023-03-12T14:32:32.113Z,3.60
2023-03-12T14:33:48.453Z,4.40
2023-03-12T14:35:23.484Z,3.50
2023-03-12T14:36:36.218Z,3.40
2023-03-12T14:37:45.848Z,3.20
2023-03-12T14:38:49.842Z,5.70
2023-03-12T14:40:01.441Z,3.70
2023-03-12T14:41:36.811Z,4.30
2023-03-12T14:42:41.866Z,2.90
2023-03-12T14:43:46.650Z,3.50
2023-03-12T14:45:00.221Z,3.60
2023-03-12T14:46:14.422Z,5.10
2023-03-12T14:47:18.343Z,5.40
2023-03-12T14:48:24.191Z,4.70
2023-03-12T14:49:32.605Z,3.40
2023-03-12T14:50:40.899Z,3.80
2023-03-12T14:51:48.600Z,5.00
2023-03-12T14:52:52.658Z,3.30
2023-03-12T14:54:02.552Z,4.90
2023-03-12T14:55:14.957Z,3.40
2023-03-12T14:56:33.234Z,5.70
2023-03-12T14:57:37.042Z,4.60
2023-03-12T14:58:47.169Z,4.70
2023-03-12T14:59:56.455Z,3.70
2023-03-12T15:01:03.338Z,4.80
2023-03-12T15:02:19.369Z,3.30
2023-03-12T15:03:24.464Z,3.20
2023-03-12T15:04:30.342Z,3.50
2023-03-12T15:05:35.621Z,5.50
2023-03-12T15:06:49.397Z,5.10
2023-03-12T15:08:00.821Z,4.00
2023-03-12T15:09:07.189Z,4.90
2023-03-12T15:10:22.281Z,3.60
2023-03-12T15:11:28.358Z,4.50
2023-03-12T15:12:37.119Z,5.30
2023-03-12T15:13:41.114Z,3.50
2023-03-12T15:14:45.792Z,3.90
2023-03-12T15:15:54.672Z,3.90
2023-03-12T15:17:00.412Z,5.20
2023-03-12T15:18:06.667Z,3.90
2023-03-12T15:19:16.743Z,4.20
2023-03-12T15:20:22.397Z,5.50
2023-03-12T15:21:26.369Z,4.20
2023-03-12T15:22:30.198Z,5.60
2023-03-12T15:23:37.897Z,5.60
2023-03-12T15:24:41.663Z,3.90
2023-03-12T15:25:45.693Z,6.80
2023-03-12T15:26:49.393Z,4.60
2023-03-12T15:28:06.388Z,5.40
2023-03-12T15:30:31.864Z,4.90